createdAt,value
2022-09-03T00:01:06.846Z,16.40
2022-09-03T00:02:22.284Z,16.30
2022-09-03T00:03:44.453Z,16.20
2022-09-03T00:05:09.921Z,16.20
2022-09-03T00:06:17.564Z,16.10
2022-09-03T00:07:32.098Z,16.10
2022-09-03T00:08:40.726Z,16.00
2022-09-03T00:09:49.483Z,16.00
2022-09-03T00:11:03.168Z,16.00
2022-09-03T00:12:26.368Z,16.00
2022-09-03T00:13:33.969Z,15.90
2022-09-03T00:14:49.833Z,16.00
2022-09-03T00:15:55.747Z,16.00
2022-09-03T00:17:09.338Z,15.90
2022-09-03T00:18:22.682Z,16.00
2022-09-03T00:19:33.609Z,16.00
2022-09-03T00:20:46.072Z,15.90
2022-09-03T00:22:10.926Z,15.90
2022-09-03T00:23:19.517Z,15.90
2022-09-03T00:24:25.698Z,15.90
2022-09-03T00:25:35.505Z,15.90
2022-09-03T00:26:39.761Z,15.90
2022-09-03T00:27:43.570Z,15.90
2022-09-03T00:28:59.223Z,15.80
2022-09-03T00:30:05.275Z,15.70
2022-09-03T00:31:34.019Z,15.60
2022-09-03T00:33:10.900Z,15.60
2022-09-03T00:34:41.382Z,15.50
2022-09-03T00:35:52.530Z,15.50
2022-09-03T00:36:54.303Z,15.50
2022-09-03T00:37:56.541Z,15.50
2022-09-03T00:38:59.098Z,15.50
2022-09-03T00:40:02.824Z,15.50
2022-09-03T00:41:25.924Z,15.50
2022-09-03T00:42:47.639Z,15.50
2022-09-03T00:44:13.810Z,15.40
2022-09-03T00:45:26.771Z,15.40
2022-09-03T00:46:59.207Z,15.40
2022-09-03T00:48:28.132Z,15.40
2022-09-03T00:49:40.180Z,15.30
2022-09-03T00:51:00.206Z,15.20
2022-09-03T00:52:13.351Z,15.20
2022-09-03T00:53:25.814Z,15.10
2022-09-03T00:54:51.424Z,15.10
2022-09-03T00:56:00.517Z,15.10
2022-09-03T00:57:25.682Z,15.00
2022-09-03T00:58:56.224Z,15.00
2022-09-03T01:00:09.920Z,14.90
2022-09-03T01:01:40.563Z,14.90
2022-09-03T01:03:00.937Z,14.90
2022-09-03T01:04:25.430Z,14.90
2022-09-03T01:05:47.070Z,15.00
2022-09-03T01:07:10.142Z,14.90
2022-09-03T01:08:26.466Z,15.00
2022-09-03T01:09:59.413Z,14.90
2022-09-03T01:11:27.998Z,14.80
2022-09-03T01:12:47.835Z,14.80
2022-09-03T01:13:52.890Z,14.70
2022-09-03T01:15:14.291Z,14.70
2022-09-03T01:16:35.484Z,14.80
2022-09-03T01:18:03.902Z,14.80
2022-09-03T01:19:34.315Z,14.80
2022-09-03T01:20:58.667Z,14.80
2022-09-03T01:22:38.475Z,14.70
2022-09-03T01:24:17.671Z,14.70
2022-09-03T01:25:50.110Z,14.70
2022-09-03T01:27:33.514Z,14.60
2022-09-03T01:29:13.064Z,14.60
2022-09-03T01:30:20.756Z,14.50
2022-09-03T01:31:35.311Z,14.50
2022-09-03T01:32:46.740Z,14.50
2022-09-03T01:34:04.872Z,14.40
2022-09-03T01:35:29.495Z,14.50
2022-09-03T01:36:53.171Z,14.60
2022-09-03T01:37:58.535Z,14.50
2022-09-03T01:39:03.589Z,14.40
2022-09-03T01:40:06.567Z,14.50
2022-09-03T01:41:34.721Z,14.40
2022-09-03T01:43:06.034Z,14.50
2022-09-03T01:44:32.751Z,14.50
2022-09-03T01:45:53.839Z,14.50
2022-09-03T01:47:33.798Z,14.50
2022-09-03T01:48:44.485Z,14.50
2022-09-03T01:49:46.040Z,14.50
2022-09-03T01:51:02.961Z,14.50
2022-09-03T01:52:43.748Z,14.50
2022-09-03T01:54:23.125Z,14.40
2022-09-03T01:55:47.866Z,14.40
2022-09-03T01:57:35.351Z,14.30
2022-09-03T01:58:45.696Z,14.30
2022-09-03T02:00:01.345Z,14.20
2022-09-03T02:01:10.135Z,14.20
2022-09-03T02:02:24.709Z,14.20
2022-09-03T02:03:36.032Z,14.00
2022-09-03T02:04:42.954Z,14.00
2022-09-03T02:05:46.920Z,14.00
2022-09-03T02:06:48.925Z,13.90
2022-09-03T02:08:05.393Z,13.90
2022-09-03T02:09:08.518Z,13.90
2022-09-03T02:10:24.346Z,13.90
2022-09-03T02:11:26.325Z,13.90
2022-09-03T02:12:33.293Z,13.90
2022-09-03T02:13:48.237Z,13.90
2022-09-03T02:14:49.831Z,13.90
2022-09-03T02:15:53.449Z,13.90
2022-09-03T02:16:58.220Z,13.90
2022-09-03T02:18:03.654Z,13.80
2022-09-03T02:19:13.670Z,13.70
2022-09-03T02:20:20.109Z,13.70
2022-09-03T02:21:25.362Z,13.60
2022-09-03T02:22:26.977Z,13.60
2022-09-03T02:23:29.090Z,13.60
2022-09-03T02:24:30.681Z,13.50
2022-09-03T02:25:44.702Z,13.50
2022-09-03T02:26:46.954Z,13.50
2022-09-03T02:27:50.833Z,13.60
2022-09-03T02:28:54.079Z,13.60
2022-09-03T02:29:56.951Z,13.60
2022-09-03T02:30:58.638Z,13.60
2022-09-03T02:32:00.399Z,13.70
2022-09-03T02:33:02.363Z,13.70
2022-09-03T02:34:04.077Z,13.70
2022-09-03T02:35:06.058Z,13.70
2022-09-03T02:36:10.874Z,13.70
2022-09-03T02:37:14.586Z,13.70
2022-09-03T02:38:19.614Z,13.60
2022-09-03T02:39:21.241Z,13.60
2022-09-03T02:40:22.919Z,13.60
2022-09-03T02:41:27.289Z,13.70
2022-09-03T02:42:28.873Z,13.60
2022-09-03T02:43:35.316Z,13.60
2022-09-03T02:44:41.586Z,13.60
2022-09-03T02:45:47.628Z,13.60
2022-09-03T02:47:02.613Z,13.60
2022-09-03T02:48:04.201Z,13.60
2022-09-03T02:49:06.963Z,13.50
2022-09-03T02:50:08.978Z,13.50
2022-09-03T02:51:14.070Z,13.50
2022-09-03T02:52:16.792Z,13.50
2022-09-03T02:53:18.390Z,13.50
2022-09-03T02:54:21.219Z,13.50
2022-09-03T02:55:22.982Z,13.40
2022-09-03T02:56:27.566Z,13.40
2022-09-03T02:57:29.195Z,13.40
2022-09-03T02:58:33.966Z,13.40
2022-09-03T02:59:35.737Z,13.40
2022-09-03T03:00:37.479Z,13.40
2022-09-03T03:01:39.169Z,13.40
2022-09-03T03:02:43.657Z,13.50
2022-09-03T03:03:45.501Z,13.50
2022-09-03T03:04:47.157Z,13.40
2022-09-03T03:05:52.513Z,13.40
2022-09-03T03:06:54.090Z,13.40
2022-09-03T03:07:58.299Z,13.40
2022-09-03T03:09:01.608Z,13.40
2022-09-03T03:10:03.801Z,13.30
2022-09-03T03:11:05.840Z,13.30
2022-09-03T03:12:07.814Z,13.30
2022-09-03T03:13:09.428Z,13.20
2022-09-03T03:14:11.042Z,13.30
2022-09-03T03:15:12.675Z,13.20
2022-09-03T03:16:16.275Z,13.20
2022-09-03T03:17:17.960Z,13.20
2022-09-03T03:18:20.427Z,13.20
2022-09-03T03:19:22.019Z,13.20
2022-09-03T03:20:24.294Z,13.20
2022-09-03T03:21:26.041Z,13.20
2022-09-03T03:22:27.597Z,13.10
2022-09-03T03:23:32.300Z,13.10
2022-09-03T03:24:33.906Z,13.10
2022-09-03T03:25:37.341Z,13.10
2022-09-03T03:26:38.905Z,13.10
2022-09-03T03:27:41.765Z,13.10
2022-09-03T03:28:43.359Z,13.20
2022-09-03T03:29:44.953Z,13.10
2022-09-03T03:30:48.569Z,13.20
2022-09-03T03:31:50.353Z,13.10
2022-09-03T03:32:53.834Z,13.10
2022-09-03T03:34:00.129Z,13.10
2022-09-03T03:35:01.707Z,13.10
2022-09-03T03:36:11.538Z,13.10
2022-09-03T03:37:13.170Z,13.00
2022-09-03T03:38:14.729Z,13.00
2022-09-03T03:39:16.510Z,13.00
2022-09-03T03:40:18.389Z,13.10
2022-09-03T03:41:22.564Z,13.00
2022-09-03T03:42:24.274Z,13.00
2022-09-03T03:43:26.158Z,12.90
2022-09-03T03:44:27.786Z,12.90
2022-09-03T03:45:29.464Z,12.90
2022-09-03T03:46:36.687Z,12.80
2022-09-03T03:47:38.420Z,12.80
2022-09-03T03:48:40.526Z,12.80
2022-09-03T03:49:42.512Z,12.80
2022-09-03T03:50:44.060Z,12.70
2022-09-03T03:51:45.662Z,12.80
2022-09-03T03:52:48.186Z,12.80
2022-09-03T03:53:53.743Z,12.80
2022-09-03T03:54:56.509Z,12.80
2022-09-03T03:56:00.620Z,12.70
2022-09-03T03:57:02.212Z,12.70
2022-09-03T03:58:03.786Z,12.70
2022-09-03T03:59:05.540Z,12.70
2022-09-03T04:00:07.740Z,12.70
2022-09-03T04:01:15.189Z,12.60
2022-09-03T04:02:17.922Z,12.60
2022-09-03T04:03:20.053Z,12.60
2022-09-03T04:04:21.702Z,12.60
2022-09-03T04:05:24.093Z,12.60
2022-09-03T04:06:26.529Z,12.60
2022-09-03T04:07:28.152Z,12.60
2022-09-03T04:08:30.127Z,12.70
2022-09-03T04:09:31.974Z,12.60
2022-09-03T04:10:33.534Z,12.60
2022-09-03T04:11:35.334Z,12.60
2022-09-03T04:12:37.001Z,12.60
2022-09-03T04:13:41.475Z,12.60
2022-09-03T04:14:43.101Z,12.50
2022-09-03T04:15:45.292Z,12.40
2022-09-03T04:16:47.095Z,12.40
2022-09-03T04:17:48.842Z,12.40
2022-09-03T04:18:52.273Z,12.40
2022-09-03T04:19:53.843Z,12.40
2022-09-03T04:21:04.219Z,12.40
2022-09-03T04:22:05.922Z,12.40
2022-09-03T04:23:07.501Z,12.40
2022-09-03T04:24:09.847Z,12.40
2022-09-03T04:25:11.435Z,12.40
2022-09-03T04:26:15.777Z,12.50
2022-09-03T04:27:17.372Z,12.50
2022-09-03T04:28:18.974Z,12.50
2022-09-03T04:29:21.974Z,12.50
2022-09-03T04:30:23.600Z,12.40
2022-09-03T04:31:25.284Z,12.40
2022-09-03T04:32:46.774Z,12.40
2022-09-03T04:33:48.388Z,12.40
2022-09-03T04:34:49.977Z,12.40
2022-09-03T04:35:52.132Z,12.40
2022-09-03T04:36:54.351Z,12.40
2022-09-03T04:37:57.320Z,12.30
2022-09-03T04:39:01.607Z,12.30
2022-09-03T04:40:04.278Z,12.30
2022-09-03T04:41:08.007Z,12.30
2022-09-03T04:42:09.562Z,12.40
2022-09-03T04:43:11.119Z,12.40
2022-09-03T04:44:13.196Z,12.30
2022-09-03T04:45:18.607Z,12.20
2022-09-03T04:46:21.644Z,12.20
2022-09-03T04:47:23.517Z,12.20
2022-09-03T04:48:25.661Z,12.20
2022-09-03T04:49:27.405Z,12.30
2022-09-03T04:50:30.514Z,12.30
2022-09-03T04:51:32.222Z,12.30
2022-09-03T04:52:33.829Z,12.30
2022-09-03T04:53:37.460Z,12.30
2022-09-03T04:54:39.078Z,12.30
2022-09-03T04:55:40.644Z,12.30
2022-09-03T04:56:42.713Z,12.30
2022-09-03T04:57:44.316Z,12.30
2022-09-03T04:58:47.549Z,12.30
2022-09-03T04:59:52.726Z,12.30
2022-09-03T05:00:54.645Z,12.40
2022-09-03T05:01:56.782Z,12.30
2022-09-03T05:03:00.994Z,12.30
2022-09-03T05:04:02.995Z,12.30
2022-09-03T05:05:04.871Z,12.30
2022-09-03T05:06:07.845Z,12.10
2022-09-03T05:07:09.970Z,12.20
2022-09-03T05:08:11.544Z,12.20
2022-09-03T05:09:13.199Z,12.20
2022-09-03T05:10:20.450Z,12.20
2022-09-03T05:11:23.046Z,12.30
2022-09-03T05:12:24.618Z,12.40
2022-09-03T05:13:26.662Z,12.40
2022-09-03T05:14:28.218Z,12.40
2022-09-03T05:15:31.428Z,12.40
2022-09-03T05:16:33.139Z,12.40
2022-09-03T05:17:37.720Z,12.40
2022-09-03T05:18:40.215Z,12.30
2022-09-03T05:19:41.798Z,12.40
2022-09-03T05:20:43.858Z,12.40
2022-09-03T05:21:45.431Z,12.40
2022-09-03T05:22:46.981Z,12.40
2022-09-03T05:23:50.697Z,12.40
2022-09-03T05:24:52.955Z,12.40
2022-09-03T05:25:59.258Z,12.50
2022-09-03T05:27:01.266Z,12.50
2022-09-03T05:28:03.183Z,12.60
2022-09-03T05:29:07.693Z,12.60
2022-09-03T05:30:09.833Z,12.70
2022-09-03T05:31:14.306Z,12.70
2022-09-03T05:32:17.260Z,12.70
2022-09-03T05:33:18.818Z,12.80
2022-09-03T05:34:20.373Z,12.80
2022-09-03T05:35:25.938Z,12.90
2022-09-03T05:36:35.138Z,12.90
2022-09-03T05:37:37.670Z,12.90
2022-09-03T05:38:39.478Z,12.90
2022-09-03T05:39:41.120Z,13.00
2022-09-03T05:40:42.725Z,13.00
2022-09-03T05:41:44.441Z,13.00
2022-09-03T05:42:45.989Z,13.00
2022-09-03T05:43:55.049Z,13.00
2022-09-03T05:44:57.186Z,13.00
2022-09-03T05:46:06.533Z,13.00
2022-09-03T05:47:08.157Z,13.10
2022-09-03T05:48:09.761Z,13.30
2022-09-03T05:49:11.820Z,13.40
2022-09-03T05:50:13.386Z,13.40
2022-09-03T05:51:17.812Z,13.40
2022-09-03T05:52:21.652Z,13.30
2022-09-03T05:53:23.282Z,13.40
2022-09-03T05:54:24.888Z,13.50
2022-09-03T05:55:28.660Z,13.50
2022-09-03T05:56:32.338Z,13.60
2022-09-03T05:57:34.438Z,13.60
2022-09-03T05:58:43.376Z,13.70
2022-09-03T05:59:44.965Z,13.80
2022-09-03T06:00:46.546Z,13.80
2022-09-03T06:01:51.102Z,13.80
2022-09-03T06:02:54.293Z,13.80
2022-09-03T06:04:12.982Z,13.80
2022-09-03T06:05:16.812Z,13.80
2022-09-03T06:06:18.386Z,13.80
2022-09-03T06:07:20.924Z,13.80
2022-09-03T06:08:22.703Z,13.90
2022-09-03T06:09:24.331Z,13.90
2022-09-03T06:10:30.061Z,13.90
2022-09-03T06:11:37.594Z,13.90
2022-09-03T06:12:40.648Z,13.90
2022-09-03T06:13:42.382Z,13.90
2022-09-03T06:14:43.963Z,13.90
2022-09-03T06:15:45.530Z,13.90
2022-09-03T06:16:49.635Z,14.00
2022-09-03T06:17:51.394Z,14.00
2022-09-03T06:18:54.129Z,14.00
2022-09-03T06:19:55.688Z,14.00
2022-09-03T06:21:02.847Z,14.00
2022-09-03T06:22:04.428Z,14.10
2022-09-03T06:23:06.001Z,14.10
2022-09-03T06:24:07.734Z,14.20
2022-09-03T06:25:10.097Z,14.20
2022-09-03T06:26:13.894Z,14.30
2022-09-03T06:27:15.473Z,14.30
2022-09-03T06:28:17.046Z,14.40
2022-09-03T06:29:24.951Z,14.40
2022-09-03T06:30:27.222Z,14.40
2022-09-03T06:31:28.831Z,14.50
2022-09-03T06:32:30.499Z,14.40
2022-09-03T06:33:34.637Z,14.50
2022-09-03T06:34:36.245Z,14.50
2022-09-03T06:35:42.956Z,14.60
2022-09-03T06:36:46.125Z,14.60
2022-09-03T06:37:47.747Z,14.60
2022-09-03T06:38:53.239Z,14.60
2022-09-03T06:39:56.080Z,14.60
2022-09-03T06:41:04.173Z,14.60
2022-09-03T06:42:05.934Z,14.60
2022-09-03T06:43:07.602Z,14.60
2022-09-03T06:44:12.225Z,14.70
2022-09-03T06:45:13.902Z,14.70
2022-09-03T06:46:17.519Z,14.70
2022-09-03T06:47:19.579Z,14.70
2022-09-03T06:48:21.258Z,14.80
2022-09-03T06:49:24.558Z,14.90
2022-09-03T06:50:26.142Z,14.90
2022-09-03T06:51:30.258Z,15.00
2022-09-03T06:52:31.842Z,15.10
2022-09-03T06:53:35.899Z,15.00
2022-09-03T06:54:39.547Z,15.00
2022-09-03T06:55:43.137Z,15.00
2022-09-03T06:56:44.732Z,15.10
2022-09-03T06:57:48.625Z,15.20
2022-09-03T06:58:56.909Z,15.20
2022-09-03T06:59:58.536Z,15.20
2022-09-03T07:01:31.431Z,15.30
2022-09-03T07:02:33.584Z,15.40
2022-09-03T07:03:36.401Z,15.40
2022-09-03T07:04:37.966Z,15.30
2022-09-03T07:05:39.666Z,15.30
2022-09-03T07:06:42.894Z,15.40
2022-09-03T07:07:46.194Z,15.50
2022-09-03T07:08:47.795Z,15.60
2022-09-03T07:09:49.381Z,15.60
2022-09-03T07:10:51.196Z,15.60
2022-09-03T07:11:52.895Z,15.60
2022-09-03T07:12:55.932Z,15.60
2022-09-03T07:13:58.623Z,15.60
2022-09-03T07:15:00.258Z,15.70
2022-09-03T07:16:04.643Z,15.70
2022-09-03T07:17:06.306Z,15.70
2022-09-03T07:18:08.271Z,15.80
2022-09-03T07:19:10.262Z,15.90
2022-09-03T07:20:11.846Z,16.00
2022-09-03T07:21:34.362Z,16.10
2022-09-03T07:22:35.932Z,16.20
2022-09-03T07:23:38.933Z,16.20
2022-09-03T07:24:40.550Z,16.30
2022-09-03T07:25:42.303Z,16.30
2022-09-03T07:26:46.379Z,16.30
2022-09-03T07:27:51.591Z,16.40
2022-09-03T07:28:56.853Z,16.50
2022-09-03T07:29:58.920Z,16.50
2022-09-03T07:31:08.107Z,16.50
2022-09-03T07:32:10.685Z,16.50
2022-09-03T07:33:13.385Z,16.50
2022-09-03T07:34:17.194Z,16.50
2022-09-03T07:35:20.012Z,16.50
2022-09-03T07:36:28.603Z,16.50
2022-09-03T07:37:31.142Z,16.50
2022-09-03T07:38:35.963Z,16.50
2022-09-03T07:39:41.671Z,16.60
2022-09-03T07:40:44.346Z,16.70
2022-09-03T07:41:46.893Z,16.80
2022-09-03T07:42:52.113Z,16.90
2022-09-03T07:43:57.446Z,17.00
2022-09-03T07:45:00.267Z,17.10
2022-09-03T07:46:03.240Z,17.10
2022-09-03T07:47:07.838Z,17.20
2022-09-03T07:48:10.305Z,17.30
2022-09-03T07:49:15.287Z,17.40
2022-09-03T07:50:17.694Z,17.50
2022-09-03T07:51:21.433Z,17.60
2022-09-03T07:52:24.039Z,17.70
2022-09-03T07:53:26.296Z,17.70
2022-09-03T07:54:29.415Z,17.80
2022-09-03T07:55:32.222Z,17.80
2022-09-03T07:56:35.754Z,17.90
2022-09-03T07:57:37.716Z,17.90
2022-09-03T07:58:42.473Z,18.00
2022-09-03T07:59:44.839Z,18.20
2022-09-03T08:00:47.613Z,18.40
2022-09-03T08:01:51.418Z,18.50
2022-09-03T08:02:54.352Z,18.40
2022-09-03T08:04:10.164Z,18.40
2022-09-03T08:06:06.652Z,18.60
2022-09-03T08:07:29.806Z,18.90
2022-09-03T08:09:17.876Z,19.10
2022-09-03T08:10:40.750Z,19.20
2022-09-03T08:16:36.484Z,19.20
2022-09-03T08:18:30.415Z,19.10
2022-09-03T08:20:29.517Z,19.00
2022-09-03T08:22:00.204Z,18.90
2022-09-03T08:23:18.626Z,18.70
2022-09-03T08:25:02.506Z,18.60
2022-09-03T08:26:04.282Z,18.60
2022-09-03T08:27:05.904Z,18.50
2022-09-03T08:28:07.746Z,18.50
2022-09-03T08:29:09.595Z,18.50
2022-09-03T08:30:11.871Z,18.60
2022-09-03T08:31:15.222Z,18.60
2022-09-03T08:32:16.841Z,18.60
2022-09-03T08:33:36.890Z,18.70
2022-09-03T08:34:38.525Z,18.70
2022-09-03T08:35:40.143Z,18.80
2022-09-03T08:36:42.131Z,18.90
2022-09-03T08:37:43.693Z,19.00
2022-09-03T08:38:46.790Z,19.10
2022-09-03T08:39:48.418Z,19.20
2022-09-03T08:40:50.443Z,19.30
2022-09-03T08:42:11.498Z,19.30
2022-09-03T08:43:18.798Z,19.40
2022-09-03T08:44:37.403Z,19.60
2022-09-03T08:45:39.444Z,19.80
2022-09-03T08:46:53.665Z,19.90
2022-09-03T08:48:23.749Z,20.00
2022-09-03T08:49:49.071Z,20.10
2022-09-03T08:50:56.053Z,20.30
2022-09-03T08:52:01.309Z,20.30
2022-09-03T08:53:25.362Z,20.60
2022-09-03T08:54:31.195Z,20.90
2022-09-03T08:55:51.173Z,20.90
2022-09-03T08:56:54.381Z,20.90
2022-09-03T08:58:14.152Z,21.10
2022-09-03T08:59:15.814Z,21.30
2022-09-03T09:00:18.129Z,21.60
2022-09-03T09:01:44.258Z,21.50
2022-09-03T09:03:16.648Z,21.60
2022-09-03T09:04:44.632Z,21.80
2022-09-03T09:06:07.116Z,21.90
2022-09-03T09:07:11.763Z,22.00
2022-09-03T09:08:21.713Z,22.20
2022-09-03T09:09:33.687Z,22.20
2022-09-03T09:11:16.547Z,22.30
2022-09-03T09:12:44.041Z,22.50
2022-09-03T09:14:00.129Z,22.50
2022-09-03T09:15:08.597Z,22.80
2022-09-03T09:16:25.886Z,23.00
2022-09-03T09:17:52.233Z,23.20
2022-09-03T09:19:23.009Z,23.30
2022-09-03T09:20:48.610Z,23.60
2022-09-03T09:21:59.040Z,23.60
2022-09-03T09:23:06.401Z,23.70
2022-09-03T09:24:26.411Z,23.90
2022-09-03T09:25:30.188Z,24.10
2022-09-03T09:26:33.193Z,24.50
2022-09-03T09:28:38.614Z,24.70
2022-09-03T09:29:41.169Z,24.30
2022-09-03T09:30:46.058Z,24.70
2022-09-03T09:31:49.436Z,25.10
2022-09-03T09:32:51.206Z,25.50
2022-09-03T09:33:52.799Z,25.60
2022-09-03T09:34:54.914Z,25.80
2022-09-03T09:35:56.493Z,25.90
2022-09-03T09:36:58.097Z,26.10
2022-09-03T09:38:00.279Z,26.30
2022-09-03T09:39:10.121Z,26.40
2022-09-03T09:40:11.730Z,26.40
2022-09-03T09:41:21.175Z,26.80
2022-09-03T09:42:23.699Z,27.00
2022-09-03T09:43:25.549Z,27.20
2022-09-03T09:44:27.777Z,27.60
2022-09-03T09:45:29.762Z,27.80
2022-09-03T09:46:40.955Z,27.30
2022-09-03T09:47:42.802Z,27.40
2022-09-03T09:48:55.481Z,27.50
2022-09-03T09:50:00.174Z,27.70
2022-09-03T09:51:14.180Z,27.90
2022-09-03T09:52:17.162Z,27.80
2022-09-03T09:53:21.506Z,27.90
2022-09-03T09:54:27.833Z,27.70
2022-09-03T09:55:29.575Z,27.70
2022-09-03T09:56:31.693Z,27.90
2022-09-03T09:57:33.830Z,28.30
2022-09-03T09:58:36.240Z,28.50
2022-09-03T09:59:38.045Z,28.70
2022-09-03T10:00:39.702Z,28.90
2022-09-03T10:01:44.671Z,28.80
2022-09-03T10:11:57.915Z,28.50
2022-09-03T10:42:30.469Z,25.50
2022-09-03T10:44:16.875Z,24.80
2022-09-03T10:45:49.473Z,24.80
2022-09-03T10:47:43.341Z,25.10
2022-09-03T10:53:12.491Z,25.50
2022-09-03T10:54:27.097Z,25.60
2022-09-03T10:55:48.263Z,25.60
2022-09-03T10:57:13.323Z,25.50
2022-09-03T10:58:47.711Z,25.30
2022-09-03T11:00:09.955Z,25.30
2022-09-03T11:01:45.894Z,25.30
2022-09-03T11:03:27.384Z,25.50
2022-09-03T11:04:56.187Z,25.50
2022-09-03T11:06:07.922Z,25.40
2022-09-03T11:07:13.958Z,25.40
2022-09-03T11:08:52.337Z,25.30
2022-09-03T11:10:21.878Z,25.30
2022-09-03T11:11:33.048Z,25.30
2022-09-03T11:12:47.095Z,25.40
2022-09-03T11:13:55.544Z,25.50
2022-09-03T11:15:27.698Z,25.50
2022-09-03T11:16:34.284Z,25.50
2022-09-03T11:17:56.903Z,25.60
2022-09-03T11:19:05.487Z,25.70
2022-09-03T11:20:25.776Z,25.40
2022-09-03T11:21:30.722Z,25.30
2022-09-03T11:22:33.970Z,25.40
2022-09-03T11:23:40.710Z,25.50
2022-09-03T11:24:48.691Z,25.70
2022-09-03T11:25:55.081Z,25.60
2022-09-03T11:27:17.890Z,25.70
2022-09-03T11:29:11.604Z,25.70
2022-09-03T11:30:29.172Z,25.90
2022-09-03T11:31:42.802Z,26.00
2022-09-03T11:33:06.397Z,26.20
2022-09-03T11:34:23.360Z,26.20
2022-09-03T11:35:31.491Z,26.20
2022-09-03T11:36:36.695Z,26.20
2022-09-03T11:37:53.053Z,26.40
2022-09-03T11:38:54.838Z,26.60
2022-09-03T11:40:26.866Z,26.60
2022-09-03T11:41:35.740Z,26.50
2022-09-03T11:42:42.917Z,26.50
2022-09-03T11:43:45.506Z,26.60
2022-09-03T11:44:52.087Z,26.80
2022-09-03T11:46:13.257Z,26.60
2022-09-03T11:47:41.751Z,26.70
2022-09-03T11:48:46.485Z,26.60
2022-09-03T11:49:54.067Z,26.50
2022-09-03T11:50:56.287Z,26.40
2022-09-03T11:52:03.324Z,26.40
2022-09-03T11:53:11.345Z,26.40
2022-09-03T11:54:16.248Z,26.30
2022-09-03T11:55:37.513Z,26.30
2022-09-03T11:56:42.284Z,26.40
2022-09-03T11:57:47.095Z,26.60
2022-09-03T11:59:04.405Z,26.60
2022-09-03T12:00:13.904Z,26.60
2022-09-03T12:01:19.898Z,26.50
2022-09-03T12:02:35.155Z,26.60
2022-09-03T12:03:48.916Z,26.60
2022-09-03T12:05:06.014Z,26.70
2022-09-03T12:06:32.595Z,26.80
2022-09-03T12:08:08.811Z,26.80
2022-09-03T12:09:42.395Z,26.80
2022-09-03T12:10:45.430Z,26.80
2022-09-03T12:11:56.252Z,26.90
2022-09-03T12:13:35.549Z,27.10
2022-09-03T12:14:57.326Z,27.10
2022-09-03T12:16:34.197Z,26.80
2022-09-03T12:18:16.448Z,26.90
2022-09-03T12:19:48.280Z,27.10
2022-09-03T12:20:55.918Z,27.40
2022-09-03T12:22:03.324Z,27.60
2022-09-03T12:23:14.460Z,27.60
2022-09-03T12:24:20.752Z,27.50
2022-09-03T12:25:22.649Z,27.30
2022-09-03T12:26:27.305Z,27.30
2022-09-03T12:27:38.856Z,27.20
2022-09-03T12:28:53.567Z,26.70
2022-09-03T12:30:14.516Z,26.90
2022-09-03T12:31:33.285Z,27.10
2022-09-03T12:32:37.356Z,27.40
2022-09-03T12:33:43.501Z,27.70
2022-09-03T12:34:45.272Z,27.90
2022-09-03T12:35:59.127Z,27.90
2022-09-03T12:37:04.735Z,27.40
2022-09-03T12:38:09.038Z,27.20
2022-09-03T12:39:18.832Z,27.30
2022-09-03T12:40:26.656Z,27.20
2022-09-03T12:41:38.397Z,27.00
2022-09-03T12:42:40.660Z,27.20
2022-09-03T12:44:03.057Z,27.30
2022-09-03T12:47:35.537Z,27.90
2022-09-03T12:49:29.996Z,28.10
2022-09-03T12:50:49.357Z,28.20
2022-09-03T12:54:29.789Z,28.80
2022-09-03T12:56:11.006Z,28.70
2022-09-03T12:59:41.012Z,27.80
2022-09-03T13:01:03.076Z,27.30
2022-09-03T13:02:21.060Z,26.90
2022-09-03T13:04:20.142Z,26.60
2022-09-03T13:05:28.901Z,26.50
2022-09-03T13:06:40.179Z,26.20
2022-09-03T13:07:59.483Z,26.10
2022-09-03T13:09:12.866Z,26.00
2022-09-03T13:10:44.457Z,25.80
2022-09-03T13:11:46.459Z,25.70
2022-09-03T13:12:53.563Z,25.60
2022-09-03T13:14:07.264Z,25.70
2022-09-03T13:15:19.805Z,25.80
2022-09-03T13:16:21.951Z,26.00
2022-09-03T13:18:00.765Z,26.10
2022-09-03T13:19:07.589Z,26.30
2022-09-03T13:20:21.811Z,26.30
2022-09-03T13:22:09.925Z,26.30
2022-09-03T13:23:37.415Z,26.40
2022-09-03T13:25:15.003Z,26.50
2022-09-03T13:26:50.213Z,26.50
2022-09-03T13:27:59.943Z,26.80
2022-09-03T13:29:27.092Z,26.80
2022-09-03T13:30:53.496Z,26.90
2022-09-03T13:32:11.084Z,26.90
2022-09-03T13:35:19.182Z,27.40
2022-09-03T13:36:29.259Z,27.40
2022-09-03T13:37:40.500Z,27.30
2022-09-03T13:38:53.325Z,27.30
2022-09-03T13:40:08.754Z,27.40
2022-09-03T13:41:35.487Z,27.30
2022-09-03T13:42:53.337Z,27.10
2022-09-03T13:44:25.534Z,27.10
2022-09-03T13:45:42.469Z,27.10
2022-09-03T13:47:08.031Z,27.30
2022-09-03T13:49:00.899Z,27.30
2022-09-03T13:51:12.003Z,27.40
2022-09-03T13:53:04.636Z,27.50
2022-09-03T13:54:53.471Z,27.40
2022-09-03T13:59:06.543Z,26.60
2022-09-03T14:01:38.944Z,26.50
2022-09-03T14:06:10.742Z,26.90
2022-09-03T14:16:49.085Z,27.70
2022-09-03T14:18:33.993Z,27.50
2022-09-03T14:20:30.770Z,27.10
2022-09-03T14:23:07.131Z,26.70
2022-09-03T14:33:34.988Z,25.80
2022-09-03T14:34:55.693Z,25.70
2022-09-03T14:36:28.367Z,25.50
2022-09-03T14:38:02.880Z,25.50
2022-09-03T14:39:32.649Z,25.70
2022-09-03T14:40:47.439Z,26.00
2022-09-03T14:42:07.723Z,26.20
2022-09-03T14:43:47.254Z,26.30
2022-09-03T14:45:02.312Z,26.40
2022-09-03T14:46:25.909Z,26.60
2022-09-03T14:47:47.387Z,26.70
2022-09-03T14:49:26.618Z,26.60
2022-09-03T14:50:56.726Z,26.50
2022-09-03T14:52:20.184Z,26.40
2022-09-03T14:53:49.581Z,26.20
2022-09-03T14:55:18.966Z,26.10
2022-09-03T14:56:39.775Z,26.00
2022-09-03T14:58:09.890Z,25.90
2022-09-03T14:59:23.708Z,25.70
2022-09-03T15:00:52.834Z,25.50
2022-09-03T15:02:29.665Z,25.30
2022-09-03T15:04:00.086Z,25.10
2022-09-03T15:05:31.255Z,25.00
2022-09-03T15:06:49.579Z,24.90
2022-09-03T15:07:59.781Z,25.00
2022-09-03T15:09:21.742Z,24.90
2022-09-03T15:10:55.878Z,25.00
2022-09-03T15:12:08.469Z,25.10
2022-09-03T15:13:16.888Z,25.10
2022-09-03T15:14:34.875Z,25.10
2022-09-03T15:15:52.226Z,25.10
2022-09-03T15:17:00.671Z,25.00
2022-09-03T15:18:42.233Z,25.00
2022-09-03T15:19:53.080Z,25.00
2022-09-03T15:21:03.758Z,25.00
2022-09-03T15:22:37.005Z,25.00
2022-09-03T15:24:06.284Z,24.90
2022-09-03T15:25:13.607Z,24.90
2022-09-03T15:26:36.845Z,24.70
2022-09-03T15:27:49.040Z,24.60
2022-09-03T15:29:09.107Z,24.50
2022-09-03T15:30:20.044Z,24.50
2022-09-03T15:31:39.047Z,24.60
2022-09-03T15:32:48.522Z,24.60
2022-09-03T15:34:20.062Z,24.60
2022-09-03T15:35:41.303Z,24.60
2022-09-03T15:36:51.624Z,24.70
2022-09-03T15:37:57.731Z,24.80
2022-09-03T15:39:05.669Z,24.80
2022-09-03T15:40:23.488Z,24.80
2022-09-03T15:41:33.200Z,24.80
2022-09-03T15:42:37.231Z,24.80
2022-09-03T15:43:39.945Z,24.70
2022-09-03T15:44:52.837Z,24.60
2022-09-03T15:46:10.711Z,24.50
2022-09-03T15:47:48.377Z,24.50
2022-09-03T15:49:13.027Z,24.60
2022-09-03T15:50:37.559Z,24.50
2022-09-03T15:52:20.235Z,24.30
2022-09-03T15:53:56.928Z,24.10
2022-09-03T15:55:03.252Z,24.00
2022-09-03T15:56:19.636Z,23.90
2022-09-03T15:58:08.506Z,24.00
2022-09-03T15:59:45.967Z,24.00
2022-09-03T16:00:53.670Z,24.10
2022-09-03T16:02:10.860Z,24.20
2022-09-03T16:03:23.676Z,24.10
2022-09-03T16:04:48.898Z,24.20
2022-09-03T16:06:02.243Z,24.20
2022-09-03T16:07:31.886Z,24.10
2022-09-03T16:08:52.063Z,24.10
2022-09-03T16:10:24.252Z,24.10
2022-09-03T16:11:53.949Z,24.20
2022-09-03T16:13:26.341Z,24.10
2022-09-03T16:14:38.163Z,24.10
2022-09-03T16:15:51.827Z,24.20
2022-09-03T16:17:02.645Z,24.20
2022-09-03T16:18:19.657Z,24.20
2022-09-03T16:19:30.304Z,24.10
2022-09-03T16:20:35.390Z,24.10
2022-09-03T16:21:51.376Z,24.10
2022-09-03T16:23:05.661Z,24.10
2022-09-03T16:24:18.958Z,24.00
2022-09-03T16:25:26.415Z,24.00
2022-09-03T16:26:39.240Z,24.00
2022-09-03T16:28:07.660Z,24.00
2022-09-03T16:29:16.650Z,24.00
2022-09-03T16:30:46.017Z,23.90
2022-09-03T16:31:47.849Z,23.80
2022-09-03T16:33:24.425Z,23.80
2022-09-03T16:34:47.268Z,23.70
2022-09-03T16:36:15.150Z,23.70
2022-09-03T16:37:35.070Z,23.60
2022-09-03T16:39:24.712Z,23.70
2022-09-03T16:40:36.780Z,23.70
2022-09-03T16:42:03.958Z,23.50
2022-09-03T16:43:39.510Z,23.40
2022-09-03T16:44:50.547Z,23.40
2022-09-03T16:46:00.995Z,23.40
2022-09-03T16:47:10.258Z,23.40